Terminal Aerodrome Forecast
Issued by NWS Newport/Morehead City, NC

Home | Current Version | Previous Version | Text Only | Print | Product List | Glossary Off
Versions: 1 2 3 4 5 6 7 8 9 10 11 12 13 14 15

000
FTUS42 KMHX 301518 AAA
TAFEWN
TAF AMD
KEWN 301518Z 3015/3112 23012G20KT P6SM SCT050 BKN100
     FM301600 24012G21KT 6SM -SHRA SCT015 BKN050
      TEMPO 3017/3019 3SM SHRA BKN015
     FM302100 26010G18KT P6SM SCT020 BKN050
     FM310000 27004KT P6SM SKC=

USA.gov is the U.S. government's official web portal to all federal, state and local government web resources and services.